Trans Adriatic — C6YQ3 — position and weather

sailwx.info

Track history (hours):
 
Tides and Currents Weather Stations Pressure Air Temp Water Temp Dewpoint Dewpoint Depression Visibility Wind Speed Wind Dir Waves Ship Positions

Trans Adriatic

Last reported at 2018-Apr-21 22:58 UTC. Time now 2018-Apr-21 23:16 UTC.
Position N 51°48' E 003°22'.

Length 123 m; draft 6.8 m.

Type: Tanker. MMSI: 311041700.

Date/timePositionNaut miles runAvg speedWind from/ knotsBaromVisibWave heightAir tempDewpointWater temp
2018-Apr-21 22:58N 51°48' E 003°22'0 0.0
2018-Apr-21 22:16N 51°48' E 003°22'0 0.0
2018-Apr-21 21:55N 51°48' E 003°22'0 0.1
2018-Apr-21 21:19N 51°48' E 003°22'0 0.1
2018-Apr-21 20:22N 51°48' E 003°22'0 0.0
2018-Apr-21 19:31N 51°48' E 003°22'0 0.0
2018-Apr-21 19:16N 51°48' E 003°22'0 0.0
2018-Apr-21 16:22N 51°48' E 003°22'0 0.2
2018-Apr-21 15:55N 51°48' E 003°22'0 0.2
2018-Apr-21 15:28N 51°48' E 003°22'0 0.0
2018-Apr-21 14:55N 51°48' E 003°22'0 0.0
2018-Apr-21 14:28N 51°48' E 003°22'0 0.0
2018-Apr-21 13:52N 51°48' E 003°22'0 0.0
2018-Apr-21 13:19N 51°48' E 003°22'0 0.0
2018-Apr-21 12:04N 51°48' E 003°22'0 0.0
2018-Apr-21 11:49N 51°48' E 003°22'0 0.0
2018-Apr-21 11:28N 51°48' E 003°22'0 0.0
2018-Apr-21 10:58N 51°48' E 003°22'0 0.0
2018-Apr-21 10:25N 51°48' E 003°22'0 0.0
2018-Apr-21 09:58N 51°48' E 003°22'0 0.0
2018-Apr-21 09:25N 51°48' E 003°22'0 0.1
2018-Apr-21 08:58N 51°48' E 003°22'0 0.1
2018-Apr-21 08:28N 51°48' E 003°22'0 0.1
2018-Apr-21 07:58N 51°48' E 003°22'0 0.0
2018-Apr-21 07:28N 51°48' E 003°22'0 0.0
2018-Apr-21 06:52N 51°48' E 003°22'0 0.0
2018-Apr-21 06:28N 51°48' E 003°22'0 0.0
2018-Apr-21 05:49N 51°48' E 003°22'0 0.0
2018-Apr-21 05:25N 51°48' E 003°22'0 0.0
2018-Apr-21 04:58N 51°48' E 003°22'0 0.0
2018-Apr-21 04:28N 51°48' E 003°22'0 0.0
2018-Apr-21 03:58N 51°48' E 003°22'1 2.8
2018-Apr-21 03:30N 51°47' E 003°21'5 9.7
2018-Apr-21 03:01N 51°46' E 003°13'510.5
2018-Apr-21 02:30N 51°49' E 003°06'612.8
2018-Apr-21 02:01N 51°47' E 002°57'612.3
2018-Apr-21 01:31N 51°49' E 002°47'714.4
2018-Apr-21 01:01N 51°53' E 002°38'714.5
2018-Apr-21 00:30N 51°58' E 002°29'815.3
2018-Apr-21 00:01N 52°05' E 002°23'815.6
2018-Apr-20 23:31N 52°12' E 002°19'816.2
2018-Apr-20 23:00N 52°20' E 002°17'816.3
2018-Apr-20 22:31N 52°28' E 002°14'816.1
2018-Apr-20 22:00N 52°36' E 002°12'815.7
2018-Apr-20 21:30N 52°44' E 002°09'815.7
2018-Apr-20 20:58N 52°51' E 002°03'715.2
2018-Apr-20 20:31N 52°55' E 001°53'714.9
2018-Apr-20 20:01N 52°60' E 001°43'714.2
2018-Apr-20 19:30N 53°04' E 001°33'713.9
2018-Apr-20 19:00N 53°09' E 001°25'713.7
2018-Apr-20 18:30N 53°14' E 001°18'713.6
2018-Apr-20 18:00N 53°19' E 001°11'713.5
2018-Apr-20 17:30N 53°24' E 001°04'713.7
2018-Apr-20 16:59N 53°31' E 000°58'713.6
2018-Apr-20 16:30N 53°36' E 000°51'3513.0
2018-Apr-20 13:49N 54°04' E 000°15'412.5
2018-Apr-20 13:31N 54°07' E 000°11'612.5
2018-Apr-20 13:01N 54°12' E 000°05'612.5
2018-Apr-20 12:30N 54°16' W 000°03'612.7
2018-Apr-20 12:01N 54°22' W 000°09'613.0
2018-Apr-20 11:31N 54°27' W 000°16'713.1
2018-Apr-20 11:00N 54°31' W 000°24'26 0.9
2018-Apr-19 06:13N 54°40' W 001°06'310.4
2018-Apr-19 05:53N 54°40' W 001°00'2011.7
2018-Apr-19 04:10N 54°32' W 000°28'213.2
2018-Apr-19 04:00N 54°32' W 000°24'713.2
2018-Apr-19 03:30N 54°29' W 000°14'714.3
2018-Apr-19 03:00N 54°23' W 000°07'714.9
2018-Apr-19 02:30N 54°17' W 000°00'815.5
2018-Apr-19 02:00N 54°11' E 000°08'815.7
2018-Apr-19 01:30N 54°05' E 000°16'916.0
2018-Apr-19 00:57N 53°58' E 000°26'3216.3
2018-Apr-18 22:58N 53°32' E 000°59'714.9
2018-Apr-18 22:30N 53°26' E 001°05'713.8
2018-Apr-18 22:00N 53°20' E 001°11'612.9
2018-Apr-18 21:30N 53°15' E 001°17'612.4
2018-Apr-18 21:00N 53°11' E 001°24'612.2
2018-Apr-18 20:30N 53°06' E 001°32'612.2
2018-Apr-18 20:00N 53°02' E 001°39'612.5
2018-Apr-18 19:30N 52°59' E 001°49'713.4
2018-Apr-18 19:00N 52°57' E 001°59'714.3
2018-Apr-18 18:30N 52°53' E 002°09'815.8
2018-Apr-18 18:00N 52°46' E 002°14'916.3
2018-Apr-18 17:25N 52°36' E 002°16'816.5
2018-Apr-18 16:57N 52°29' E 002°18'716.7
2018-Apr-18 16:30N 52°21' E 002°20'816.6
2018-Apr-18 16:00N 52°13' E 002°22'1214.8
2018-Apr-18 15:11N 52°03' E 002°33'213.3
2018-Apr-18 15:00N 52°03' E 002°36'1013.3
2018-Apr-18 14:14N 51°59' E 002°52'514.1
2018-Apr-18 13:53N 51°56' E 002°58'614.0
2018-Apr-18 13:26N 51°52' E 003°07'613.8
2018-Apr-18 13:00N 51°47' E 003°13'611.7
2018-Apr-18 12:29N 51°42' E 003°17'611.2
2018-Apr-18 11:59N 51°37' E 003°22'510.7
2018-Apr-18 11:30N 51°33' E 003°25'5 9.7
2018-Apr-18 11:00N 51°29' E 003°30'5 9.2
2018-Apr-18 10:30N 51°26' E 003°36'5 9.1
2018-Apr-18 10:00N 51°24' E 003°43'611.2
2018-Apr-18 09:30N 51°20' E 003°49'1 1.1
2018-Apr-18 09:00N 51°20' E 003°49'0 0.3
2018-Apr-18 08:30N 51°20' E 003°49'1 2.7
2018-Apr-18 07:58N 51°18' E 003°50'0 0.0
2018-Apr-18 07:22N 51°18' E 003°50'0 0.0
2018-Apr-18 06:58N 51°18' E 003°50'0 0.0
2018-Apr-18 06:28N 51°18' E 003°50'0 0.0
2018-Apr-18 06:00N 51°18' E 003°50'0 0.0
2018-Apr-18 05:28N 51°18' E 003°50'0 0.0
2018-Apr-18 04:58N 51°18' E 003°50'0 0.0
2018-Apr-18 04:28N 51°18' E 003°50'0 0.0
2018-Apr-18 03:58N 51°18' E 003°50'0 0.0
2018-Apr-18 03:28N 51°18' E 003°50'0 0.0
2018-Apr-18 02:55N 51°18' E 003°50'0 0.0
2018-Apr-18 02:28N 51°18' E 003°50'0 0.0
2018-Apr-18 01:58N 51°18' E 003°50'0 0.0
2018-Apr-18 01:28N 51°18' E 003°50'0 0.0
2018-Apr-18 00:58N 51°18' E 003°50'0 0.0
2018-Apr-18 00:25N 51°18' E 003°50'0 0.0
2018-Apr-17 23:58N 51°18' E 003°50'0 0.0
2018-Apr-17 23:28N 51°18' E 003°50'0 0.0
2018-Apr-17 22:55N 51°18' E 003°50'0 0.0
2018-Apr-17 22:25N 51°18' E 003°50'0 0.0
2018-Apr-17 21:55N 51°18' E 003°50'0 0.0
2018-Apr-17 21:28N 51°18' E 003°50'0 0.0
2018-Apr-17 20:58N 51°18' E 003°50'0 0.0
2018-Apr-17 20:28N 51°18' E 003°50'0 0.0
2018-Apr-17 19:58N 51°18' E 003°50'0 0.0
2018-Apr-17 19:28N 51°18' E 003°50'0 0.0
2018-Apr-17 19:00N 51°18' E 003°50'2 3.2
2018-Apr-17 18:30N 51°20' E 003°49'0 0.0
2018-Apr-17 18:00N 51°20' E 003°49'1 2.5
2018-Apr-17 17:30N 51°21' E 003°48'2 4.8
2018-Apr-17 17:00N 51°22' E 003°45'4 8.6
2018-Apr-17 16:30N 51°26' E 003°41'4 8.9
2018-Apr-17 16:01N 51°25' E 003°34'4 8.4
2018-Apr-17 15:30N 51°29' E 003°30'4 8.4
2018-Apr-17 15:00N 51°32' E 003°25'510.1
2018-Apr-17 14:30N 51°37' E 003°22'610.9
2018-Apr-17 13:57N 51°42' E 003°17'510.0
2018-Apr-17 13:30N 51°46' E 003°13'2 3.9
2018-Apr-17 12:58N 51°47' E 003°11'2 3.5
2018-Apr-17 12:30N 51°48' E 003°09'19 6.0
2018-Apr-17 09:25N 51°54' E 002°40'811.2
2018-Apr-17 08:44N 51°60' E 002°31'311.4
2018-Apr-17 08:30N 52°01' E 002°27'511.2
2018-Apr-17 08:00N 52°03' E 002°19'611.9
2018-Apr-17 07:30N 52°08' E 002°27'4 8.1
2018-Apr-17 07:00N 52°10' E 002°21'8 9.7
2018-Apr-17 06:13N 52°06' E 002°11'210.5
2018-Apr-17 06:00N 52°07' E 002°07'4 8.8
2018-Apr-17 05:30N 52°11' E 002°03'20 9.0
2018-Apr-17 03:16N 52°30' E 002°15'3 9.0
2018-Apr-17 02:53N 52°32' E 002°18'4 9.1
2018-Apr-17 02:30N 52°35' E 002°22'5 9.6
2018-Apr-17 02:00N 52°38' E 002°28'610.5
2018-Apr-17 01:26N 52°40' E 002°37'2611.7
2018-Apr-16 23:12N 52°31' E 003°17'312.1
2018-Apr-16 22:59N 52°31' E 003°22'612.1
2018-Apr-16 22:29N 52°31' E 003°32'612.2
2018-Apr-16 22:00N 52°31' E 003°41'612.2
2018-Apr-16 21:30N 52°31' E 003°51'612.0
2018-Apr-16 21:00N 52°31' E 004°01'612.0
2018-Apr-16 20:30N 52°31' E 004°11'611.3
2018-Apr-16 20:00N 52°30' E 004°20'611.4
2018-Apr-16 19:30N 52°29' E 004°29'5 9.1
2018-Apr-16 19:00N 52°28' E 004°36'0 0.0
2018-Apr-16 18:31N 52°28' E 004°36'1 2.2
2018-Apr-16 18:00N 52°28' E 004°38'4 7.4
2018-Apr-16 17:30N 52°26' E 004°44'4 8.0
2018-Apr-16 17:01N 52°25' E 004°50'2 3.0
2018-Apr-16 16:29N 52°24' E 004°52'0 0.0
2018-Apr-16 15:59N 52°24' E 004°52'0 0.0
2018-Apr-16 15:29N 52°24' E 004°52'0 0.0
2018-Apr-16 14:59N 52°24' E 004°52'0 0.0
2018-Apr-16 14:29N 52°24' E 004°52'0 0.0
2018-Apr-16 13:59N 52°24' E 004°52'0 0.0
2018-Apr-16 13:29N 52°24' E 004°52'0 0.0
2018-Apr-16 12:59N 52°24' E 004°52'0 0.0
2018-Apr-16 12:29N 52°24' E 004°52'0 0.0
2018-Apr-16 11:59N 52°24' E 004°52'0 0.0
2018-Apr-16 11:29N 52°24' E 004°52'0 0.0
2018-Apr-16 10:59N 52°24' E 004°52'0 0.0
2018-Apr-16 10:29N 52°24' E 004°52'0 0.0
2018-Apr-16 09:59N 52°24' E 004°52'0 0.0
2018-Apr-16 09:29N 52°24' E 004°52'0 0.0
2018-Apr-16 08:59N 52°24' E 004°52'0 0.0
2018-Apr-16 08:29N 52°24' E 004°52'0 0.0
2018-Apr-16 07:59N 52°24' E 004°52'0 0.0
2018-Apr-16 07:29N 52°24' E 004°52'0 0.0
2018-Apr-16 06:59N 52°24' E 004°52'0 0.0
2018-Apr-16 06:29N 52°24' E 004°52'0 0.0
2018-Apr-16 05:59N 52°24' E 004°52'0 0.0
2018-Apr-16 05:29N 52°24' E 004°52'0 0.0
2018-Apr-16 04:59N 52°24' E 004°52'0 0.0
2018-Apr-16 04:29N 52°24' E 004°52'0 0.0
2018-Apr-16 04:00N 52°24' E 004°52'0 0.0
2018-Apr-16 03:29N 52°24' E 004°52'0 0.0
2018-Apr-16 02:59N 52°24' E 004°52'0 0.0
2018-Apr-16 02:29N 52°24' E 004°52'0 0.0
2018-Apr-16 01:59N 52°24' E 004°52'0 0.0
2018-Apr-16 01:29N 52°24' E 004°52'0 0.0
2018-Apr-16 00:59N 52°24' E 004°52'0 0.0
2018-Apr-16 00:30N 52°24' E 004°52'0 0.0
2018-Apr-15 23:59N 52°24' E 004°52'0 0.0
2018-Apr-15 23:29N 52°24' E 004°52'0 0.0
2018-Apr-15 22:56N 52°24' E 004°52'0 0.0
2018-Apr-15 22:29N 52°24' E 004°52'0 0.0
2018-Apr-15 21:59N 52°24' E 004°52'0 0.0
2018-Apr-15 21:29N 52°24' E 004°52'0 0.0
2018-Apr-15 20:59N 52°24' E 004°52'0 0.0
2018-Apr-15 20:29N 52°24' E 004°52'0 0.0
2018-Apr-15 19:59N 52°24' E 004°52'0 0.0
2018-Apr-15 19:29N 52°24' E 004°52'0 0.0
2018-Apr-15 18:59N 52°24' E 004°52'0 0.0
2018-Apr-15 18:29N 52°24' E 004°52'0 0.0
2018-Apr-15 17:59N 52°24' E 004°52'0 0.0
2018-Apr-15 17:29N 52°24' E 004°52'0 0.0
2018-Apr-15 16:59N 52°24' E 004°52'0 0.0
2018-Apr-15 16:29N 52°24' E 004°52'0 0.0
2018-Apr-15 15:59N 52°24' E 004°52'0 0.0
2018-Apr-15 15:29N 52°24' E 004°52'0 0.0
2018-Apr-15 14:59N 52°24' E 004°52'0 0.0
2018-Apr-15 14:29N 52°24' E 004°52'0 0.0
2018-Apr-15 13:59N 52°24' E 004°52'0 0.0
2018-Apr-15 13:29N 52°24' E 004°52'0 0.0
2018-Apr-15 12:59N 52°24' E 004°52'0 0.0
2018-Apr-15 12:29N 52°24' E 004°52'0 0.0
2018-Apr-15 11:59N 52°24' E 004°52'0 0.0
2018-Apr-15 11:29N 52°24' E 004°52'0 0.0
2018-Apr-15 10:59N 52°24' E 004°52'0 0.0
2018-Apr-15 10:29N 52°24' E 004°52'0 0.0
2018-Apr-15 09:59N 52°24' E 004°52'0 0.0
2018-Apr-15 09:29N 52°24' E 004°52'0 0.0
2018-Apr-15 08:59N 52°24' E 004°52'0 0.0
2018-Apr-15 08:30N 52°24' E 004°52'2 3.7
2018-Apr-15 08:00N 52°25' E 004°49'4 7.0
2018-Apr-15 07:30N 52°26' E 004°44'4 7.8
2018-Apr-15 07:01N 52°28' E 004°38'1 2.1
2018-Apr-15 06:30N 52°28' E 004°37'1 2.6
2018-Apr-15 06:00N 52°28' E 004°34'510.2
2018-Apr-15 05:30N 52°28' E 004°26'5 9.3
2018-Apr-15 05:00N 52°28' E 004°18'4 7.3
2018-Apr-15 04:30N 52°29' E 004°12'3 5.9
2018-Apr-15 04:00N 52°28' E 004°08'3 5.2
2018-Apr-15 03:30N 52°28' E 004°03'3 6.9
2018-Apr-15 03:00N 52°27' E 003°58'713.2
2018-Apr-15 02:30N 52°26' E 003°47'713.9
2018-Apr-15 01:59N 52°23' E 003°36'814.3
2018-Apr-15 01:25N 52°18' E 003°26'614.4
2018-Apr-15 01:00N 52°14' E 003°19'714.3
2018-Apr-15 00:30N 52°09' E 003°10'714.3
2018-Apr-15 00:00N 52°04' E 003°03'713.6
2018-Apr-14 23:29N 51°59' E 002°54'713.5
2018-Apr-14 22:59N 51°54' E 002°47'1612.7
2018-Apr-14 21:43N 51°42' E 002°29'211.9
2018-Apr-14 21:30N 51°40' E 002°26'611.7
2018-Apr-14 21:00N 51°36' E 002°20'611.3
2018-Apr-14 20:30N 51°31' E 002°14'510.9
2018-Apr-14 20:00N 51°27' E 002°09'510.6
2018-Apr-14 19:30N 51°23' E 002°03'510.6
2018-Apr-14 19:00N 51°19' E 001°58'510.3
2018-Apr-14 18:31N 51°16' E 001°52'510.3
2018-Apr-14 18:00N 51°12' E 001°47'510.1
2018-Apr-14 17:30N 51°08' E 001°42'510.1
2018-Apr-14 17:01N 51°04' E 001°37'510.6
2018-Apr-14 16:30N 50°60' E 001°31'3711.5
2018-Apr-14 13:19N 50°30' E 000°57'2412.5
2018-Apr-14 11:25N 50°24' E 000°21'612.6
2018-Apr-14 10:58N 50°23' E 000°13'612.9
2018-Apr-14 10:30N 50°21' E 000°04'713.3
2018-Apr-14 10:00N 50°19' W 000°06'713.7
2018-Apr-14 09:30N 50°18' W 000°17'814.4
2018-Apr-14 08:59N 50°16' W 000°28'715.0
2018-Apr-14 08:30N 50°14' W 000°39'815.5
2018-Apr-14 08:00N 50°12' W 000°51'815.9
2018-Apr-14 07:30N 50°10' W 001°03'816.2
2018-Apr-14 07:00N 50°08' W 001°15'816.3
2018-Apr-14 06:30N 50°06' W 001°27'816.2
2018-Apr-14 06:00N 50°03' W 001°39'816.0
2018-Apr-14 05:30N 50°01' W 001°51'815.4
2018-Apr-14 05:00N 49°60' W 002°03'714.6
2018-Apr-14 04:30N 49°58' W 002°14'3313.2
2018-Apr-14 01:59N 49°51' W 003°04'612.6
2018-Apr-14 01:30N 49°51' W 003°14'612.3
2018-Apr-14 01:00N 49°51' W 003°23'612.1
2018-Apr-14 00:30N 49°51' W 003°33'712.1
2018-Apr-13 23:56N 49°52' W 003°43'1912.0
2018-Apr-13 22:23N 49°52' W 004°12'1712.3
2018-Apr-13 21:02N 49°52' W 004°38'212.5
2018-Apr-13 20:54N 49°52' W 004°41'1012.6
2018-Apr-13 20:04N 49°52' W 004°57'17310.2
2018-Apr-13 03:08N 52°45' W 005°20'214.2
2018-Apr-13 02:57N 52°47' W 005°18'7012.5
2018-Apr-12 21:23N 53°34' W 003°52'512.8
2018-Apr-12 20:59N 53°34' W 003°43'612.6
2018-Apr-12 20:30N 53°34' W 003°33'612.0
2018-Apr-12 20:00N 53°33' W 003°23'5 9.6
2018-Apr-12 19:30N 53°31' W 003°15'5 9.5
2018-Apr-12 19:00N 53°31' W 003°07'5 9.0
2018-Apr-12 18:30N 53°28' W 003°03'1 2.1
2018-Apr-12 17:58N 53°27' W 003°01'0 0.4
2018-Apr-12 17:28N 53°27' W 003°01'0 0.3
2018-Apr-12 16:58N 53°27' W 003°01'0 0.0
2018-Apr-12 16:28N 53°27' W 003°01'0 0.0
2018-Apr-12 15:58N 53°27' W 003°01'0 0.0
2018-Apr-12 15:28N 53°27' W 003°01'0 0.0
2018-Apr-12 14:58N 53°27' W 003°01'0 0.0
2018-Apr-12 14:28N 53°27' W 003°01'0 0.0
2018-Apr-12 13:58N 53°27' W 003°01'0 0.0
2018-Apr-12 13:19N 53°27' W 003°01'0 0.0
2018-Apr-12 12:55N 53°27' W 003°01'0 0.0
2018-Apr-12 12:25N 53°27' W 003°01'0 0.0
2018-Apr-12 11:55N 53°27' W 003°01'0 0.0
2018-Apr-12 11:28N 53°27' W 003°01'0 0.0
2018-Apr-12 10:58N 53°27' W 003°01'0 0.0
2018-Apr-12 10:28N 53°27' W 003°01'0 0.0
2018-Apr-12 09:58N 53°27' W 003°01'0 0.0
2018-Apr-12 09:28N 53°27' W 003°01'0 0.0
2018-Apr-12 08:55N 53°27' W 003°01'0 0.0
2018-Apr-12 08:25N 53°27' W 003°01'0 0.0
2018-Apr-12 07:58N 53°27' W 003°01'0 0.0
2018-Apr-12 07:25N 53°27' W 003°01'0 0.0
2018-Apr-12 06:58N 53°27' W 003°01'0 0.0
2018-Apr-12 06:28N 53°27' W 003°01'0 0.0
2018-Apr-12 05:52N 53°27' W 003°01'0 0.0
2018-Apr-12 05:28N 53°27' W 003°01'0 0.0
2018-Apr-12 04:58N 53°27' W 003°01'0 0.0
2018-Apr-12 04:28N 53°27' W 003°01'0 0.0
2018-Apr-12 03:55N 53°27' W 003°01'0 0.0
2018-Apr-12 03:28N 53°27' W 003°01'0 0.0
2018-Apr-12 02:58N 53°27' W 003°01'0 0.0
2018-Apr-12 02:22N 53°27' W 003°01'0 0.0
2018-Apr-12 01:52N 53°27' W 003°01'0 0.0
2018-Apr-12 01:28N 53°27' W 003°01'0 0.0
2018-Apr-12 01:00N 53°27' W 003°01'0 0.0
2018-Apr-12 00:30N 53°27' W 003°01'0 0.0
2018-Apr-12 00:00N 53°27' W 003°01'0 0.0
2018-Apr-11 23:30N 53°27' W 003°01'0 0.0
2018-Apr-11 23:00N 53°27' W 003°01'  
Track history (hours):
 
Tides and Currents Weather Stations Pressure Air Temp Water Temp Dewpoint Dewpoint Depression Visibility Wind Speed Wind Dir Waves Ship Positions

Trans Adriatic

Last reported at 2018-Apr-21 22:58 UTC. Time now 2018-Apr-21 23:16 UTC.
Position N 51°48' E 003°22'.

Length 123 m; draft 6.8 m.

Type: Tanker. MMSI: 311041700.

Date/timePositionNaut miles runAvg speedWind from/ knotsBaromVisibWave heightAir tempDewpointWater temp
2018-Apr-21 22:58N 51°48' E 003°22'0 0.0
2018-Apr-21 22:16N 51°48' E 003°22'0 0.0
2018-Apr-21 21:55N 51°48' E 003°22'0 0.1
2018-Apr-21 21:19N 51°48' E 003°22'0 0.1
2018-Apr-21 20:22N 51°48' E 003°22'0 0.0
2018-Apr-21 19:31N 51°48' E 003°22'0 0.0
2018-Apr-21 19:16N 51°48' E 003°22'0 0.0
2018-Apr-21 16:22N 51°48' E 003°22'0 0.2
2018-Apr-21 15:55N 51°48' E 003°22'0 0.2
2018-Apr-21 15:28N 51°48' E 003°22'0 0.0
2018-Apr-21 14:55N 51°48' E 003°22'0 0.0
2018-Apr-21 14:28N 51°48' E 003°22'0 0.0
2018-Apr-21 13:52N 51°48' E 003°22'0 0.0
2018-Apr-21 13:19N 51°48' E 003°22'0 0.0
2018-Apr-21 12:04N 51°48' E 003°22'0 0.0
2018-Apr-21 11:49N 51°48' E 003°22'0 0.0
2018-Apr-21 11:28N 51°48' E 003°22'0 0.0
2018-Apr-21 10:58N 51°48' E 003°22'0 0.0
2018-Apr-21 10:25N 51°48' E 003°22'0 0.0
2018-Apr-21 09:58N 51°48' E 003°22'0 0.0
2018-Apr-21 09:25N 51°48' E 003°22'0 0.1
2018-Apr-21 08:58N 51°48' E 003°22'0 0.1
2018-Apr-21 08:28N 51°48' E 003°22'0 0.1
2018-Apr-21 07:58N 51°48' E 003°22'0 0.0
2018-Apr-21 07:28N 51°48' E 003°22'0 0.0
2018-Apr-21 06:52N 51°48' E 003°22'0 0.0
2018-Apr-21 06:28N 51°48' E 003°22'0 0.0
2018-Apr-21 05:49N 51°48' E 003°22'0 0.0
2018-Apr-21 05:25N 51°48' E 003°22'0 0.0
2018-Apr-21 04:58N 51°48' E 003°22'0 0.0
2018-Apr-21 04:28N 51°48' E 003°22'0 0.0
2018-Apr-21 03:58N 51°48' E 003°22'1 2.8
2018-Apr-21 03:30N 51°47' E 003°21'5 9.7
2018-Apr-21 03:01N 51°46' E 003°13'510.5
2018-Apr-21 02:30N 51°49' E 003°06'612.8
2018-Apr-21 02:01N 51°47' E 002°57'612.3
2018-Apr-21 01:31N 51°49' E 002°47'714.4
2018-Apr-21 01:01N 51°53' E 002°38'714.5
2018-Apr-21 00:30N 51°58' E 002°29'815.3
2018-Apr-21 00:01N 52°05' E 002°23'815.6
2018-Apr-20 23:31N 52°12' E 002°19'816.2
2018-Apr-20 23:00N 52°20' E 002°17'816.3
2018-Apr-20 22:31N 52°28' E 002°14'816.1
2018-Apr-20 22:00N 52°36' E 002°12'815.7
2018-Apr-20 21:30N 52°44' E 002°09'815.7
2018-Apr-20 20:58N 52°51' E 002°03'715.2
2018-Apr-20 20:31N 52°55' E 001°53'714.9
2018-Apr-20 20:01N 52°60' E 001°43'714.2
2018-Apr-20 19:30N 53°04' E 001°33'713.9
2018-Apr-20 19:00N 53°09' E 001°25'713.7
2018-Apr-20 18:30N 53°14' E 001°18'713.6
2018-Apr-20 18:00N 53°19' E 001°11'713.5
2018-Apr-20 17:30N 53°24' E 001°04'713.7
2018-Apr-20 16:59N 53°31' E 000°58'713.6
2018-Apr-20 16:30N 53°36' E 000°51'3513.0
2018-Apr-20 13:49N 54°04' E 000°15'412.5
2018-Apr-20 13:31N 54°07' E 000°11'612.5
2018-Apr-20 13:01N 54°12' E 000°05'612.5
2018-Apr-20 12:30N 54°16' W 000°03'612.7
2018-Apr-20 12:01N 54°22' W 000°09'613.0
2018-Apr-20 11:31N 54°27' W 000°16'713.1
2018-Apr-20 11:00N 54°31' W 000°24'26 0.9
2018-Apr-19 06:13N 54°40' W 001°06'310.4
2018-Apr-19 05:53N 54°40' W 001°00'2011.7
2018-Apr-19 04:10N 54°32' W 000°28'213.2
2018-Apr-19 04:00N 54°32' W 000°24'713.2
2018-Apr-19 03:30N 54°29' W 000°14'714.3
2018-Apr-19 03:00N 54°23' W 000°07'714.9
2018-Apr-19 02:30N 54°17' W 000°00'815.5
2018-Apr-19 02:00N 54°11' E 000°08'815.7
2018-Apr-19 01:30N 54°05' E 000°16'916.0
2018-Apr-19 00:57N 53°58' E 000°26'3216.3
2018-Apr-18 22:58N 53°32' E 000°59'714.9
2018-Apr-18 22:30N 53°26' E 001°05'713.8
2018-Apr-18 22:00N 53°20' E 001°11'612.9
2018-Apr-18 21:30N 53°15' E 001°17'612.4
2018-Apr-18 21:00N 53°11' E 001°24'612.2
2018-Apr-18 20:30N 53°06' E 001°32'612.2
2018-Apr-18 20:00N 53°02' E 001°39'612.5
2018-Apr-18 19:30N 52°59' E 001°49'713.4
2018-Apr-18 19:00N 52°57' E 001°59'714.3
2018-Apr-18 18:30N 52°53' E 002°09'815.8
2018-Apr-18 18:00N 52°46' E 002°14'916.3
2018-Apr-18 17:25N 52°36' E 002°16'816.5
2018-Apr-18 16:57N 52°29' E 002°18'716.7
2018-Apr-18 16:30N 52°21' E 002°20'816.6
2018-Apr-18 16:00N 52°13' E 002°22'1214.8
2018-Apr-18 15:11N 52°03' E 002°33'213.3
2018-Apr-18 15:00N 52°03' E 002°36'1013.3
2018-Apr-18 14:14N 51°59' E 002°52'514.1
2018-Apr-18 13:53N 51°56' E 002°58'614.0
2018-Apr-18 13:26N 51°52' E 003°07'613.8
2018-Apr-18 13:00N 51°47' E 003°13'611.7
2018-Apr-18 12:29N 51°42' E 003°17'611.2
2018-Apr-18 11:59N 51°37' E 003°22'510.7
2018-Apr-18 11:30N 51°33' E 003°25'5 9.7
2018-Apr-18 11:00N 51°29' E 003°30'5 9.2
2018-Apr-18 10:30N 51°26' E 003°36'5 9.1
2018-Apr-18 10:00N 51°24' E 003°43'611.2
2018-Apr-18 09:30N 51°20' E 003°49'1 1.1
2018-Apr-18 09:00N 51°20' E 003°49'0 0.3
2018-Apr-18 08:30N 51°20' E 003°49'1 2.7
2018-Apr-18 07:58N 51°18' E 003°50'0 0.0
2018-Apr-18 07:22N 51°18' E 003°50'0 0.0
2018-Apr-18 06:58N 51°18' E 003°50'0 0.0
2018-Apr-18 06:28N 51°18' E 003°50'0 0.0
2018-Apr-18 06:00N 51°18' E 003°50'0 0.0
2018-Apr-18 05:28N 51°18' E 003°50'0 0.0
2018-Apr-18 04:58N 51°18' E 003°50'0 0.0
2018-Apr-18 04:28N 51°18' E 003°50'0 0.0
2018-Apr-18 03:58N 51°18' E 003°50'0 0.0
2018-Apr-18 03:28N 51°18' E 003°50'0 0.0
2018-Apr-18 02:55N 51°18' E 003°50'0 0.0
2018-Apr-18 02:28N 51°18' E 003°50'0 0.0
2018-Apr-18 01:58N 51°18' E 003°50'0 0.0
2018-Apr-18 01:28N 51°18' E 003°50'0 0.0
2018-Apr-18 00:58N 51°18' E 003°50'0 0.0
2018-Apr-18 00:25N 51°18' E 003°50'0 0.0
2018-Apr-17 23:58N 51°18' E 003°50'0 0.0
2018-Apr-17 23:28N 51°18' E 003°50'0 0.0
2018-Apr-17 22:55N 51°18' E 003°50'0 0.0
2018-Apr-17 22:25N 51°18' E 003°50'0 0.0
2018-Apr-17 21:55N 51°18' E 003°50'0 0.0
2018-Apr-17 21:28N 51°18' E 003°50'0 0.0
2018-Apr-17 20:58N 51°18' E 003°50'0 0.0
2018-Apr-17 20:28N 51°18' E 003°50'0 0.0
2018-Apr-17 19:58N 51°18' E 003°50'0 0.0
2018-Apr-17 19:28N 51°18' E 003°50'0 0.0
2018-Apr-17 19:00N 51°18' E 003°50'2 3.2
2018-Apr-17 18:30N 51°20' E 003°49'0 0.0
2018-Apr-17 18:00N 51°20' E 003°49'1 2.5
2018-Apr-17 17:30N 51°21' E 003°48'2 4.8
2018-Apr-17 17:00N 51°22' E 003°45'4 8.6
2018-Apr-17 16:30N 51°26' E 003°41'4 8.9
2018-Apr-17 16:01N 51°25' E 003°34'4 8.4
2018-Apr-17 15:30N 51°29' E 003°30'4 8.4
2018-Apr-17 15:00N 51°32' E 003°25'510.1
2018-Apr-17 14:30N 51°37' E 003°22'610.9
2018-Apr-17 13:57N 51°42' E 003°17'510.0
2018-Apr-17 13:30N 51°46' E 003°13'2 3.9
2018-Apr-17 12:58N 51°47' E 003°11'2 3.5
2018-Apr-17 12:30N 51°48' E 003°09'19 6.0
2018-Apr-17 09:25N 51°54' E 002°40'811.2
2018-Apr-17 08:44N 51°60' E 002°31'311.4
2018-Apr-17 08:30N 52°01' E 002°27'511.2
2018-Apr-17 08:00N 52°03' E 002°19'611.9
2018-Apr-17 07:30N 52°08' E 002°27'4 8.1
2018-Apr-17 07:00N 52°10' E 002°21'8 9.7
2018-Apr-17 06:13N 52°06' E 002°11'210.5
2018-Apr-17 06:00N 52°07' E 002°07'4 8.8
2018-Apr-17 05:30N 52°11' E 002°03'20 9.0
2018-Apr-17 03:16N 52°30' E 002°15'3 9.0
2018-Apr-17 02:53N 52°32' E 002°18'4 9.1
2018-Apr-17 02:30N 52°35' E 002°22'5 9.6
2018-Apr-17 02:00N 52°38' E 002°28'610.5
2018-Apr-17 01:26N 52°40' E 002°37'2611.7
2018-Apr-16 23:12N 52°31' E 003°17'312.1
2018-Apr-16 22:59N 52°31' E 003°22'612.1
2018-Apr-16 22:29N 52°31' E 003°32'612.2
2018-Apr-16 22:00N 52°31' E 003°41'612.2
2018-Apr-16 21:30N 52°31' E 003°51'612.0
2018-Apr-16 21:00N 52°31' E 004°01'612.0
2018-Apr-16 20:30N 52°31' E 004°11'611.3
2018-Apr-16 20:00N 52°30' E 004°20'611.4
2018-Apr-16 19:30N 52°29' E 004°29'5 9.1
2018-Apr-16 19:00N 52°28' E 004°36'0 0.0
2018-Apr-16 18:31N 52°28' E 004°36'1 2.2
2018-Apr-16 18:00N 52°28' E 004°38'4 7.4
2018-Apr-16 17:30N 52°26' E 004°44'4 8.0
2018-Apr-16 17:01N 52°25' E 004°50'2 3.0
2018-Apr-16 16:29N 52°24' E 004°52'0 0.0
2018-Apr-16 15:59N 52°24' E 004°52'0 0.0
2018-Apr-16 15:29N 52°24' E 004°52'0 0.0
2018-Apr-16 14:59N 52°24' E 004°52'0 0.0
2018-Apr-16 14:29N 52°24' E 004°52'0 0.0
2018-Apr-16 13:59N 52°24' E 004°52'0 0.0
2018-Apr-16 13:29N 52°24' E 004°52'0 0.0
2018-Apr-16 12:59N 52°24' E 004°52'0 0.0
2018-Apr-16 12:29N 52°24' E 004°52'0 0.0
2018-Apr-16 11:59N 52°24' E 004°52'0 0.0
2018-Apr-16 11:29N 52°24' E 004°52'0 0.0
2018-Apr-16 10:59N 52°24' E 004°52'0 0.0
2018-Apr-16 10:29N 52°24' E 004°52'0 0.0
2018-Apr-16 09:59N 52°24' E 004°52'0 0.0
2018-Apr-16 09:29N 52°24' E 004°52'0 0.0
2018-Apr-16 08:59N 52°24' E 004°52'0 0.0
2018-Apr-16 08:29N 52°24' E 004°52'0 0.0
2018-Apr-16 07:59N 52°24' E 004°52'0 0.0
2018-Apr-16 07:29N 52°24' E 004°52'0 0.0
2018-Apr-16 06:59N 52°24' E 004°52'0 0.0
2018-Apr-16 06:29N 52°24' E 004°52'0 0.0
2018-Apr-16 05:59N 52°24' E 004°52'0 0.0
2018-Apr-16 05:29N 52°24' E 004°52'0 0.0
2018-Apr-16 04:59N 52°24' E 004°52'0 0.0
2018-Apr-16 04:29N 52°24' E 004°52'0 0.0
2018-Apr-16 04:00N 52°24' E 004°52'0 0.0
2018-Apr-16 03:29N 52°24' E 004°52'0 0.0
2018-Apr-16 02:59N 52°24' E 004°52'0 0.0
2018-Apr-16 02:29N 52°24' E 004°52'0 0.0
2018-Apr-16 01:59N 52°24' E 004°52'0 0.0
2018-Apr-16 01:29N 52°24' E 004°52'0 0.0
2018-Apr-16 00:59N 52°24' E 004°52'0 0.0
2018-Apr-16 00:30N 52°24' E 004°52'0 0.0
2018-Apr-15 23:59N 52°24' E 004°52'0 0.0
2018-Apr-15 23:29N 52°24' E 004°52'0 0.0
2018-Apr-15 22:56N 52°24' E 004°52'0 0.0
2018-Apr-15 22:29N 52°24' E 004°52'0 0.0
2018-Apr-15 21:59N 52°24' E 004°52'0 0.0
2018-Apr-15 21:29N 52°24' E 004°52'0 0.0
2018-Apr-15 20:59N 52°24' E 004°52'0 0.0
2018-Apr-15 20:29N 52°24' E 004°52'0 0.0
2018-Apr-15 19:59N 52°24' E 004°52'0 0.0
2018-Apr-15 19:29N 52°24' E 004°52'0 0.0
2018-Apr-15 18:59N 52°24' E 004°52'0 0.0
2018-Apr-15 18:29N 52°24' E 004°52'0 0.0
2018-Apr-15 17:59N 52°24' E 004°52'0 0.0
2018-Apr-15 17:29N 52°24' E 004°52'0 0.0
2018-Apr-15 16:59N 52°24' E 004°52'0 0.0
2018-Apr-15 16:29N 52°24' E 004°52'0 0.0
2018-Apr-15 15:59N 52°24' E 004°52'0 0.0
2018-Apr-15 15:29N 52°24' E 004°52'0 0.0
2018-Apr-15 14:59N 52°24' E 004°52'0 0.0
2018-Apr-15 14:29N 52°24' E 004°52'0 0.0
2018-Apr-15 13:59N 52°24' E 004°52'0 0.0
2018-Apr-15 13:29N 52°24' E 004°52'0 0.0
2018-Apr-15 12:59N 52°24' E 004°52'0 0.0
2018-Apr-15 12:29N 52°24' E 004°52'0 0.0
2018-Apr-15 11:59N 52°24' E 004°52'0 0.0
2018-Apr-15 11:29N 52°24' E 004°52'0 0.0
2018-Apr-15 10:59N 52°24' E 004°52'0 0.0
2018-Apr-15 10:29N 52°24' E 004°52'0 0.0
2018-Apr-15 09:59N 52°24' E 004°52'0 0.0
2018-Apr-15 09:29N 52°24' E 004°52'0 0.0
2018-Apr-15 08:59N 52°24' E 004°52'0 0.0
2018-Apr-15 08:30N 52°24' E 004°52'2 3.7
2018-Apr-15 08:00N 52°25' E 004°49'4 7.0
2018-Apr-15 07:30N 52°26' E 004°44'4 7.8
2018-Apr-15 07:01N 52°28' E 004°38'1 2.1
2018-Apr-15 06:30N 52°28' E 004°37'1 2.6
2018-Apr-15 06:00N 52°28' E 004°34'510.2
2018-Apr-15 05:30N 52°28' E 004°26'5 9.3
2018-Apr-15 05:00N 52°28' E 004°18'4 7.3
2018-Apr-15 04:30N 52°29' E 004°12'3 5.9
2018-Apr-15 04:00N 52°28' E 004°08'3 5.2
2018-Apr-15 03:30N 52°28' E 004°03'3 6.9
2018-Apr-15 03:00N 52°27' E 003°58'713.2
2018-Apr-15 02:30N 52°26' E 003°47'713.9
2018-Apr-15 01:59N 52°23' E 003°36'814.3
2018-Apr-15 01:25N 52°18' E 003°26'614.4
2018-Apr-15 01:00N 52°14' E 003°19'714.3
2018-Apr-15 00:30N 52°09' E 003°10'714.3
2018-Apr-15 00:00N 52°04' E 003°03'713.6
2018-Apr-14 23:29N 51°59' E 002°54'713.5
2018-Apr-14 22:59N 51°54' E 002°47'1612.7
2018-Apr-14 21:43N 51°42' E 002°29'211.9
2018-Apr-14 21:30N 51°40' E 002°26'611.7
2018-Apr-14 21:00N 51°36' E 002°20'611.3
2018-Apr-14 20:30N 51°31' E 002°14'510.9
2018-Apr-14 20:00N 51°27' E 002°09'510.6
2018-Apr-14 19:30N 51°23' E 002°03'510.6
2018-Apr-14 19:00N 51°19' E 001°58'510.3
2018-Apr-14 18:31N 51°16' E 001°52'510.3
2018-Apr-14 18:00N 51°12' E 001°47'510.1
2018-Apr-14 17:30N 51°08' E 001°42'510.1
2018-Apr-14 17:01N 51°04' E 001°37'510.6
2018-Apr-14 16:30N 50°60' E 001°31'3711.5
2018-Apr-14 13:19N 50°30' E 000°57'2412.5
2018-Apr-14 11:25N 50°24' E 000°21'612.6
2018-Apr-14 10:58N 50°23' E 000°13'612.9
2018-Apr-14 10:30N 50°21' E 000°04'713.3
2018-Apr-14 10:00N 50°19' W 000°06'713.7
2018-Apr-14 09:30N 50°18' W 000°17'814.4
2018-Apr-14 08:59N 50°16' W 000°28'715.0
2018-Apr-14 08:30N 50°14' W 000°39'815.5
2018-Apr-14 08:00N 50°12' W 000°51'815.9
2018-Apr-14 07:30N 50°10' W 001°03'816.2
2018-Apr-14 07:00N 50°08' W 001°15'816.3
2018-Apr-14 06:30N 50°06' W 001°27'816.2
2018-Apr-14 06:00N 50°03' W 001°39'816.0
2018-Apr-14 05:30N 50°01' W 001°51'815.4
2018-Apr-14 05:00N 49°60' W 002°03'714.6
2018-Apr-14 04:30N 49°58' W 002°14'3313.2
2018-Apr-14 01:59N 49°51' W 003°04'612.6
2018-Apr-14 01:30N 49°51' W 003°14'612.3
2018-Apr-14 01:00N 49°51' W 003°23'612.1
2018-Apr-14 00:30N 49°51' W 003°33'712.1
2018-Apr-13 23:56N 49°52' W 003°43'1912.0
2018-Apr-13 22:23N 49°52' W 004°12'1712.3
2018-Apr-13 21:02N 49°52' W 004°38'212.5
2018-Apr-13 20:54N 49°52' W 004°41'1012.6
2018-Apr-13 20:04N 49°52' W 004°57'17310.2
2018-Apr-13 03:08N 52°45' W 005°20'214.2
2018-Apr-13 02:57N 52°47' W 005°18'7012.5
2018-Apr-12 21:23N 53°34' W 003°52'512.8
2018-Apr-12 20:59N 53°34' W 003°43'612.6
2018-Apr-12 20:30N 53°34' W 003°33'612.0
2018-Apr-12 20:00N 53°33' W 003°23'5 9.6
2018-Apr-12 19:30N 53°31' W 003°15'5 9.5
2018-Apr-12 19:00N 53°31' W 003°07'5 9.0
2018-Apr-12 18:30N 53°28' W 003°03'1 2.1
2018-Apr-12 17:58N 53°27' W 003°01'0 0.4
2018-Apr-12 17:28N 53°27' W 003°01'0 0.3
2018-Apr-12 16:58N 53°27' W 003°01'0 0.0
2018-Apr-12 16:28N 53°27' W 003°01'0 0.0
2018-Apr-12 15:58N 53°27' W 003°01'0 0.0
2018-Apr-12 15:28N 53°27' W 003°01'0 0.0
2018-Apr-12 14:58N 53°27' W 003°01'0 0.0
2018-Apr-12 14:28N 53°27' W 003°01'0 0.0
2018-Apr-12 13:58N 53°27' W 003°01'0 0.0
2018-Apr-12 13:19N 53°27' W 003°01'0 0.0
2018-Apr-12 12:55N 53°27' W 003°01'0 0.0
2018-Apr-12 12:25N 53°27' W 003°01'0 0.0
2018-Apr-12 11:55N 53°27' W 003°01'0 0.0
2018-Apr-12 11:28N 53°27' W 003°01'0 0.0
2018-Apr-12 10:58N 53°27' W 003°01'0 0.0
2018-Apr-12 10:28N 53°27' W 003°01'0 0.0
2018-Apr-12 09:58N 53°27' W 003°01'0 0.0
2018-Apr-12 09:28N 53°27' W 003°01'0 0.0
2018-Apr-12 08:55N 53°27' W 003°01'0 0.0
2018-Apr-12 08:25N 53°27' W 003°01'0 0.0
2018-Apr-12 07:58N 53°27' W 003°01'0 0.0
2018-Apr-12 07:25N 53°27' W 003°01'0 0.0
2018-Apr-12 06:58N 53°27' W 003°01'0 0.0
2018-Apr-12 06:28N 53°27' W 003°01'0 0.0
2018-Apr-12 05:52N 53°27' W 003°01'0 0.0
2018-Apr-12 05:28N 53°27' W 003°01'0 0.0
2018-Apr-12 04:58N 53°27' W 003°01'0 0.0
2018-Apr-12 04:28N 53°27' W 003°01'0 0.0
2018-Apr-12 03:55N 53°27' W 003°01'0 0.0
2018-Apr-12 03:28N 53°27' W 003°01'0 0.0
2018-Apr-12 02:58N 53°27' W 003°01'0 0.0
2018-Apr-12 02:22N 53°27' W 003°01'0 0.0
2018-Apr-12 01:52N 53°27' W 003°01'0 0.0
2018-Apr-12 01:28N 53°27' W 003°01'0 0.0
2018-Apr-12 01:00N 53°27' W 003°01'0 0.0
2018-Apr-12 00:30N 53°27' W 003°01'0 0.0
2018-Apr-12 00:00N 53°27' W 003°01'0 0.0
2018-Apr-11 23:30N 53°27' W 003°01'0 0.0
2018-Apr-11 23:00N 53°27' W 003°01'  

Dump ship's entire track history